Time;durP1;ratioP1;P1;durP2;ratioP2;P2;SDS_P1;SDS_P2;PMS_P1;PMS_P2;Temp;Humidity;BMP_temperature;BMP_pressure;BME280_temperature;BME280_humidity;BME280_pressure;Samples;Min_cycle;Max_cycle;Signal;HPM_P1;HPM_P2
2021/07/16 00:02:01;;;;;;;28.75;9.95;;;;;;;19.54;100.00;101482.81;4988629;28;20038;-80
2021/07/16 00:04:27;;;;;;;24.73;9.20;;;;;;;19.54;100.00;101472.97;4979444;28;20033;-79
2021/07/16 00:06:52;;;;;;;34.60;9.75;;;;;;;19.58;100.00;101468.09;4988142;28;20073;-77
2021/07/16 00:09:19;;;;;;;31.40;10.35;;;;;;;19.55;100.00;101479.97;5005392;28;20026;-78
2021/07/16 00:11:44;;;;;;;30.40;10.75;;;;;;;19.51;100.00;101477.84;5007517;28;20404;-78
2021/07/16 00:14:10;;;;;;;35.00;11.00;;;;;;;19.44;100.00;101470.63;4989025;28;20111;-78
2021/07/16 00:16:38;;;;;;;25.80;10.00;;;;;;;19.40;100.00;101482.66;4994017;28;20030;-78
2021/07/16 00:19:03;;;;;;;25.65;9.98;;;;;;;19.40;100.00;101490.63;4974091;28;20038;-77
2021/07/16 00:21:29;;;;;;;34.50;10.88;;;;;;;19.38;100.00;101489.16;4993064;28;20053;-78
2021/07/16 00:23:55;;;;;;;32.17;10.27;;;;;;;19.37;100.00;101496.31;4987442;28;20048;-77
2021/07/16 00:26:20;;;;;;;27.92;10.77;;;;;;;19.34;100.00;101488.69;4975234;28;20049;-77
2021/07/16 00:28:46;;;;;;;34.00;10.68;;;;;;;19.26;100.00;101496.78;4991116;28;20042;-78
2021/07/16 00:31:12;;;;;;;28.83;10.82;;;;;;;19.21;100.00;101494.69;4989990;28;20411;-78
2021/07/16 00:33:38;;;;;;;26.50;10.52;;;;;;;19.23;100.00;101489.19;4983393;28;20053;-76
2021/07/16 00:36:04;;;;;;;32.88;10.15;;;;;;;19.13;100.00;101478.00;4971538;28;21770;-76
2021/07/16 00:38:30;;;;;;;27.55;10.10;;;;;;;19.12;100.00;101481.66;4968979;28;20038;-78
2021/07/16 00:40:56;;;;;;;23.60;9.43;;;;;;;19.03;100.00;101483.63;4990677;28;20431;-79
2021/07/16 00:43:22;;;;;;;35.00;9.77;;;;;;;19.02;100.00;101479.28;4987214;28;20042;-81
2021/07/16 00:45:48;;;;;;;21.15;9.00;;;;;;;18.99;100.00;101485.00;4959929;28;20044;-78
2021/07/16 00:48:13;;;;;;;21.33;8.25;;;;;;;19.00;100.00;101482.13;4977069;28;20038;-78
2021/07/16 00:50:40;;;;;;;25.08;8.38;;;;;;;19.01;100.00;101481.13;4978494;28;20034;-79
2021/07/16 00:53:14;;;;;;;25.65;8.93;;;;;;;18.90;100.00;101483.44;4994473;28;20061;-77
2021/07/16 00:55:42;;;;;;;28.25;8.70;;;;;;;18.79;100.00;101490.00;4976562;28;20123;-77
2021/07/16 00:58:08;;;;;;;29.50;8.50;;;;;;;18.71;100.00;101495.41;4975233;28;20511;-76
2021/07/16 01:00:34;;;;;;;25.88;8.43;;;;;;;18.66;100.00;101498.59;4995282;28;20034;-76
2021/07/16 01:03:00;;;;;;;30.25;8.13;;;;;;;18.67;100.00;101490.44;4988829;28;20411;-77
2021/07/16 01:05:26;;;;;;;26.70;7.95;;;;;;;18.68;100.00;101493.91;4965339;28;20038;-78
2021/07/16 01:07:52;;;;;;;30.80;7.97;;;;;;;18.67;100.00;101494.94;5000270;28;20045;-76
2021/07/16 01:10:20;;;;;;;27.70;7.68;;;;;;;18.64;100.00;101501.44;4985345;28;20599;-76
2021/07/16 01:12:51;;;;;;;30.05;8.40;;;;;;;18.57;100.00;101497.03;5007550;28;20407;-76
2021/07/16 01:15:21;;;;;;;25.25;7.82;;;;;;;18.52;100.00;101502.88;4979554;28;20041;-77
2021/07/16 01:17:48;;;;;;;33.88;8.23;;;;;;;18.40;100.00;101491.03;4979377;28;20050;-78
2021/07/16 01:20:16;;;;;;;30.70;7.40;;;;;;;18.44;100.00;101506.44;4980173;28;20514;-77
2021/07/16 01:22:43;;;;;;;27.23;8.07;;;;;;;18.40;100.00;101506.97;4996383;28;20038;-77
2021/07/16 01:25:15;;;;;;;23.50;8.00;;;;;;;18.36;100.00;101500.38;5012136;28;20041;-77
2021/07/16 01:27:43;;;;;;;27.15;8.13;;;;;;;18.39;100.00;101500.03;4978965;28;20037;-77
2021/07/16 01:30:11;;;;;;;22.83;7.38;;;;;;;18.38;100.00;101503.66;4994710;28;20029;-77
2021/07/16 01:32:37;;;;;;;18.30;7.45;;;;;;;18.28;100.00;101506.59;5006062;28;20101;-79
2021/07/16 01:35:08;;;;;;;22.73;7.03;;;;;;;18.23;100.00;101503.63;5011024;28;20531;-77
2021/07/16 01:37:35;;;;;;;23.23;7.28;;;;;;;18.21;100.00;101516.25;4995757;28;20030;-79
2021/07/16 01:40:07;;;;;;;25.90;7.30;;;;;;;18.13;100.00;101514.50;4995843;28;20060;-77
2021/07/16 01:42:39;;;;;;;23.83;7.13;;;;;;;18.12;100.00;101512.84;4977715;28;20056;-79
2021/07/16 01:45:08;;;;;;;22.40;7.83;;;;;;;18.10;100.00;101520.16;4976924;28;20666;-77
2021/07/16 01:47:33;;;;;;;21.40;7.30;;;;;;;18.07;100.00;101521.34;4973191;28;20033;-80
2021/07/16 01:50:02;;;;;;;24.25;8.50;;;;;;;18.00;100.00;101516.91;4987868;28;20033;-78
2021/07/16 01:52:28;;;;;;;26.08;7.30;;;;;;;17.99;100.00;101516.09;5012779;28;20042;-78
2021/07/16 01:54:53;;;;;;;27.27;7.22;;;;;;;17.94;100.00;101514.97;5035199;28;20041;-76
2021/07/16 01:57:19;;;;;;;26.33;7.30;;;;;;;17.89;100.00;101510.19;4993730;28;20037;-77
2021/07/16 01:59:44;;;;;;;23.85;6.97;;;;;;;17.98;100.00;101518.91;4991385;28;20111;-77
2021/07/16 02:02:10;;;;;;;31.88;7.80;;;;;;;17.92;100.00;101512.50;5002858;28;20420;-77
2021/07/16 02:04:35;;;;;;;21.92;7.05;;;;;;;17.90;100.00;101515.31;4988658;28;20042;-77
2021/07/16 02:07:02;;;;;;;28.13;7.72;;;;;;;18.02;100.00;101517.56;4993454;28;20037;-75
2021/07/16 02:09:27;;;;;;;24.52;7.53;;;;;;;17.87;100.00;101518.31;4990349;28;20042;-77
2021/07/16 02:11:57;;;;;;;28.90;7.30;;;;;;;17.86;100.00;101513.22;5002250;28;20569;-76
2021/07/16 02:14:24;;;;;;;25.25;7.22;;;;;;;17.87;100.00;101523.63;4984285;28;20112;-77
2021/07/16 02:16:50;;;;;;;23.75;7.35;;;;;;;17.90;100.00;101530.41;4997220;28;20569;-77
2021/07/16 02:19:16;;;;;;;30.67;8.23;;;;;;;17.90;100.00;101533.06;4974849;28;20133;-79
2021/07/16 02:21:41;;;;;;;26.40;6.78;;;;;;;17.86;100.00;101529.94;4989944;28;20131;-76
2021/07/16 02:24:07;;;;;;;22.70;7.18;;;;;;;17.83;100.00;101529.44;4986234;28;20053;-76
2021/07/16 02:26:33;;;;;;;23.38;7.47;;;;;;;17.80;100.00;101541.25;4990832;28;20096;-76
2021/07/16 02:28:58;;;;;;;26.33;7.28;;;;;;;17.84;100.00;101541.72;5024752;28;20037;-76
2021/07/16 02:31:24;;;;;;;25.85;6.97;;;;;;;17.85;100.00;101538.06;5005696;28;20037;-77
2021/07/16 02:33:49;;;;;;;22.90;7.03;;;;;;;17.91;100.00;101545.31;5009646;28;20099;-78
2021/07/16 02:36:17;;;;;;;26.17;7.78;;;;;;;17.87;100.00;101534.22;4996733;28;20032;-77
2021/07/16 02:38:43;;;;;;;23.95;7.85;;;;;;;17.82;100.00;101541.03;4972573;28;20491;-78
2021/07/16 02:41:09;;;;;;;23.55;6.97;;;;;;;17.73;100.00;101537.63;5012850;28;20037;-77
2021/07/16 02:43:36;;;;;;;28.40;6.68;;;;;;;17.66;100.00;101541.97;4972603;28;20041;-77
2021/07/16 02:46:02;;;;;;;23.60;7.28;;;;;;;17.71;100.00;101555.53;4980503;28;20034;-77
2021/07/16 02:48:28;;;;;;;28.58;7.47;;;;;;;17.59;100.00;101555.09;5008333;28;20040;-77
2021/07/16 02:50:53;;;;;;;23.55;6.88;;;;;;;17.66;100.00;101561.34;4973323;28;20458;-79
2021/07/16 02:53:22;;;;;;;22.95;6.97;;;;;;;17.66;100.00;101560.53;4974529;28;20041;-78
2021/07/16 02:55:59;;;;;;;27.38;7.43;;;;;;;17.66;100.00;101555.22;5072906;28;20376;-78
2021/07/16 02:58:25;;;;;;;27.77;7.32;;;;;;;17.67;100.00;101556.91;5041140;28;20397;-76
2021/07/16 03:00:50;;;;;;;31.63;7.15;;;;;;;17.62;100.00;101561.88;5037696;28;20049;-76
2021/07/16 03:03:16;;;;;;;19.95;6.90;;;;;;;17.66;100.00;101569.31;5013967;28;20048;-76
2021/07/16 03:05:42;;;;;;;28.35;7.53;;;;;;;17.64;100.00;101562.53;5026528;28;20418;-76
2021/07/16 03:08:10;;;;;;;22.95;7.72;;;;;;;17.74;100.00;101557.00;5011533;28;20568;-77
2021/07/16 03:10:38;;;;;;;31.85;7.45;;;;;;;17.73;100.00;101558.84;5013856;28;20057;-76
2021/07/16 03:13:06;;;;;;;23.13;7.60;;;;;;;17.70;100.00;101562.66;5017642;28;20048;-76
2021/07/16 03:15:34;;;;;;;22.23;7.18;;;;;;;17.65;100.00;101564.16;5038543;28;20037;-76
2021/07/16 03:17:59;;;;;;;22.20;7.63;;;;;;;17.72;100.00;101559.84;5026112;28;20094;-76
2021/07/16 03:20:28;;;;;;;17.83;7.32;;;;;;;17.73;100.00;101566.81;5026091;28;20033;-76
2021/07/16 03:22:54;;;;;;;28.55;8.15;;;;;;;17.74;100.00;101571.09;5026985;28;20434;-75
2021/07/16 03:25:22;;;;;;;28.88;7.63;;;;;;;17.74;100.00;101567.63;5026479;28;20521;-76
2021/07/16 03:27:48;;;;;;;36.28;8.55;;;;;;;17.76;99.71;101573.59;5014919;28;20041;-76
2021/07/16 03:30:19;;;;;;;27.63;7.43;;;;;;;17.76;100.00;101570.94;5017314;28;20088;-76
2021/07/16 03:32:45;;;;;;;31.33;7.63;;;;;;;17.80;100.00;101581.03;5011920;28;20453;-76
2021/07/16 03:35:12;;;;;;;28.23;7.93;;;;;;;17.73;100.00;101588.03;5042252;28;20554;-77
2021/07/16 03:37:38;;;;;;;28.83;7.88;;;;;;;17.73;100.00;101590.69;5058088;28;20098;-75
2021/07/16 03:40:07;;;;;;;31.10;8.13;;;;;;;17.70;99.24;101588.38;5033451;28;20056;-76
2021/07/16 03:42:33;;;;;;;26.67;8.18;;;;;;;17.71;99.44;101598.00;5011003;28;20041;-76
2021/07/16 03:44:59;;;;;;;24.73;8.27;;;;;;;17.74;99.40;101592.31;5026039;28;20119;-75
2021/07/16 03:47:24;;;;;;;23.50;7.40;;;;;;;17.63;99.97;101593.56;5025142;28;20043;-76
2021/07/16 03:49:50;;;;;;;28.35;7.95;;;;;;;17.69;99.35;101592.03;5009646;28;20051;-78
2021/07/16 03:52:15;;;;;;;24.95;7.40;;;;;;;17.75;100.00;101598.47;5007828;28;20141;-76
2021/07/16 03:54:41;;;;;;;26.60;8.15;;;;;;;17.73;99.61;101598.66;5024561;28;20060;-77
2021/07/16 03:57:08;;;;;;;26.50;7.30;;;;;;;17.78;100.00;101596.31;5025229;28;20049;-77
2021/07/16 03:59:35;;;;;;;27.52;7.38;;;;;;;17.71;99.72;101590.03;5010548;28;20895;-78
2021/07/16 04:02:02;;;;;;;35.65;8.35;;;;;;;17.70;99.58;101591.84;5013847;28;20044;-76
2021/07/16 04:04:28;;;;;;;25.65;7.82;;;;;;;17.79;100.00;101599.78;5008175;28;22046;-77
2021/07/16 04:06:54;;;;;;;24.08;7.57;;;;;;;17.68;100.00;101593.84;5016344;28;20038;-78
2021/07/16 04:09:27;;;;;;;26.50;8.30;;;;;;;17.61;100.00;101603.50;4997841;28;20065;-76
2021/07/16 04:12:10;;;;;;;24.35;8.05;;;;;;;17.64;100.00;101602.31;5013387;28;20044;-76
2021/07/16 04:14:38;;;;;;;19.02;7.22;;;;;;;17.66;100.00;101601.16;5009317;28;20045;-77
2021/07/16 04:17:08;;;;;;;30.60;7.82;;;;;;;17.78;100.00;101606.91;5017004;28;20077;-78
2021/07/16 04:19:33;;;;;;;21.30;8.07;;;;;;;17.70;100.00;101614.91;4978651;28;20129;-77
2021/07/16 04:22:00;;;;;;;20.10;7.70;;;;;;;17.66;100.00;101602.97;5015298;28;20033;-78
2021/07/16 04:24:25;;;;;;;28.23;8.30;;;;;;;17.68;99.52;101620.38;5013842;28;20212;-75
2021/07/16 04:26:51;;;;;;;27.23;7.53;;;;;;;17.68;99.58;101609.75;4997206;28;20083;-77
2021/07/16 04:29:17;;;;;;;25.73;6.70;;;;;;;17.72;99.76;101618.19;5013764;28;20091;-77
2021/07/16 04:31:42;;;;;;;20.90;6.95;;;;;;;17.69;100.00;101623.88;5029144;28;20084;-76
2021/07/16 04:34:08;;;;;;;23.02;6.85;;;;;;;17.64;100.00;101623.56;5008833;28;20076;-76
2021/07/16 04:36:33;;;;;;;20.33;6.70;;;;;;;17.68;100.00;101628.31;4998799;28;20079;-75
2021/07/16 04:38:59;;;;;;;26.42;7.38;;;;;;;17.69;100.00;101629.19;5013863;28;20045;-77
2021/07/16 04:41:24;;;;;;;30.35;7.55;;;;;;;17.70;100.00;101621.03;5022900;28;20043;-77
2021/07/16 04:43:50;;;;;;;30.60;7.15;;;;;;;17.70;100.00;101620.19;5012949;28;20046;-77
2021/07/16 04:46:15;;;;;;;29.02;7.40;;;;;;;17.77;100.00;101628.31;5022105;28;20535;-77
2021/07/16 04:48:41;;;;;;;30.98;8.20;;;;;;;17.84;100.00;101622.16;4992835;28;20045;-76
2021/07/16 04:51:06;;;;;;;29.90;7.25;;;;;;;17.95;100.00;101623.63;5034630;28;20064;-77
2021/07/16 04:53:32;;;;;;;29.08;7.25;;;;;;;18.06;100.00;101625.03;4996194;28;20140;-76
2021/07/16 04:55:57;;;;;;;25.42;7.20;;;;;;;18.12;99.14;101629.66;5027779;28;20033;-77
2021/07/16 04:58:23;;;;;;;24.20;6.90;;;;;;;18.17;99.96;101626.47;5012679;28;20053;-77
2021/07/16 05:00:48;;;;;;;29.38;6.90;;;;;;;18.27;99.85;101632.38;4995265;28;20033;-77
2021/07/16 05:03:14;;;;;;;29.05;6.72;;;;;;;18.41;96.31;101636.13;5012470;28;20135;-77
2021/07/16 05:05:39;;;;;;;28.73;6.82;;;;;;;18.37;96.39;101616.25;4996582;28;20037;-76
2021/07/16 05:08:05;;;;;;;33.17;6.72;;;;;;;18.42;95.95;101628.00;5012530;28;20048;-76
2021/07/16 05:10:31;;;;;;;24.75;6.63;;;;;;;18.48;98.17;101624.63;5007465;28;20111;-76
2021/07/16 05:12:56;;;;;;;23.33;6.50;;;;;;;18.56;98.15;101629.03;5029718;28;20072;-77
2021/07/16 05:15:22;;;;;;;29.17;6.53;;;;;;;18.54;95.46;101635.53;5011368;28;20033;-76
2021/07/16 05:17:47;;;;;;;28.77;6.93;;;;;;;18.53;95.85;101637.34;4994842;28;20052;-75
2021/07/16 05:20:13;;;;;;;26.35;6.45;;;;;;;18.46;94.17;101642.56;5013317;28;20064;-76
2021/07/16 05:22:39;;;;;;;31.75;6.82;;;;;;;18.50;95.62;101645.69;5010650;28;20068;-76
2021/07/16 05:25:05;;;;;;;26.48;6.30;;;;;;;18.40;94.42;101643.28;4996310;28;20044;-76
2021/07/16 05:27:31;;;;;;;31.77;7.00;;;;;;;18.33;94.91;101637.00;4995731;28;20072;-76
2021/07/16 05:29:56;;;;;;;29.42;6.63;;;;;;;18.33;94.65;101641.47;4995394;28;20510;-75
2021/07/16 05:32:22;;;;;;;34.40;7.20;;;;;;;18.48;94.90;101645.03;5028608;28;20049;-77
2021/07/16 05:34:48;;;;;;;25.25;6.25;;;;;;;18.46;93.08;101633.78;4996077;28;20029;-74
2021/07/16 05:37:14;;;;;;;28.42;6.68;;;;;;;18.51;94.75;101635.88;5011691;28;20041;-76
2021/07/16 05:39:45;;;;;;;27.98;6.75;;;;;;;18.62;94.67;101638.13;4996650;28;20038;-78
2021/07/16 05:42:10;;;;;;;30.52;6.65;;;;;;;18.81;94.41;101652.78;4994624;28;20046;-78
2021/07/16 05:44:36;;;;;;;30.25;7.13;;;;;;;18.79;92.92;101658.25;4994284;28;20033;-78
2021/07/16 05:47:02;;;;;;;27.13;7.32;;;;;;;18.73;92.12;101655.50;5012574;28;20052;-76
2021/07/16 05:49:27;;;;;;;26.42;6.90;;;;;;;18.76;94.48;101661.28;5028792;28;20033;-76
2021/07/16 05:51:53;;;;;;;34.60;8.07;;;;;;;18.68;93.54;101656.84;5044670;28;20044;-78
2021/07/16 05:54:18;;;;;;;32.50;7.10;;;;;;;18.86;92.75;101663.72;5003611;28;20033;-76
2021/07/16 05:56:45;;;;;;;30.48;8.00;;;;;;;18.97;90.63;101667.78;5023161;28;20051;-74
2021/07/16 05:59:10;;;;;;;36.92;7.20;;;;;;;19.10;91.17;101667.16;5015388;28;20056;-74
2021/07/16 06:01:36;;;;;;;24.42;6.75;;;;;;;19.09;92.93;101666.34;5008699;28;20515;-76
2021/07/16 06:04:09;;;;;;;35.97;7.38;;;;;;;19.20;91.39;101665.91;5003157;28;20033;-78
2021/07/16 06:06:38;;;;;;;30.73;7.10;;;;;;;19.24;90.48;101672.50;4993075;28;20531;-77
2021/07/16 06:09:05;;;;;;;25.73;7.22;;;;;;;19.22;90.21;101673.69;5015815;28;20478;-76
2021/07/16 06:11:32;;;;;;;26.92;7.07;;;;;;;19.18;91.15;101681.22;4994302;28;20052;-76
2021/07/16 06:13:58;;;;;;;35.70;7.32;;;;;;;19.19;90.24;101680.22;4994180;28;20103;-76
2021/07/16 06:16:23;;;;;;;30.02;7.03;;;;;;;19.32;89.89;101689.41;5006792;28;20055;-77
2021/07/16 06:18:49;;;;;;;31.00;7.57;;;;;;;19.56;89.74;101688.31;4993706;28;20042;-77
2021/07/16 06:21:14;;;;;;;30.23;8.15;;;;;;;19.69;91.38;101683.19;5010196;28;20048;-76
2021/07/16 06:23:40;;;;;;;25.98;6.90;;;;;;;19.95;88.03;101696.06;5027438;28;20040;-78
2021/07/16 06:26:05;;;;;;;22.80;7.13;;;;;;;19.87;88.46;101692.66;5027776;28;20513;-74
2021/07/16 06:28:31;;;;;;;25.48;6.93;;;;;;;19.94;89.65;101688.25;5018385;28;20055;-77
2021/07/16 06:30:57;;;;;;;27.35;6.47;;;;;;;20.03;86.73;101698.59;4994995;28;20033;-77
2021/07/16 06:33:22;;;;;;;26.88;7.07;;;;;;;20.21;85.32;101692.03;5000181;28;20037;-75
2021/07/16 06:35:48;;;;;;;22.15;6.30;;;;;;;20.29;87.82;101699.13;4994075;28;20120;-77
2021/07/16 06:38:13;;;;;;;27.25;7.15;;;;;;;20.38;84.73;101705.97;4993474;28;20049;-76
2021/07/16 06:40:39;;;;;;;25.17;6.35;;;;;;;20.47;84.15;101698.69;5000064;28;20032;-74
2021/07/16 06:43:09;;;;;;;22.05;6.07;;;;;;;20.51;84.48;101698.13;5012485;28;20041;-77
2021/07/16 06:45:36;;;;;;;24.98;6.68;;;;;;;20.51;85.17;101700.81;5011668;28;20034;-77
2021/07/16 06:48:03;;;;;;;32.05;7.40;;;;;;;20.56;83.29;101702.88;5011919;28;20038;-76
2021/07/16 06:50:30;;;;;;;27.70;6.30;;;;;;;20.59;85.50;101711.34;5012539;28;20510;-77
2021/07/16 06:52:55;;;;;;;29.52;6.95;;;;;;;20.68;83.10;101714.75;5012621;28;20100;-75
2021/07/16 06:55:21;;;;;;;30.85;7.10;;;;;;;20.68;84.08;101712.06;4994979;28;20831;-76
2021/07/16 06:57:47;;;;;;;27.33;6.80;;;;;;;20.74;83.59;101713.97;4991803;28;20121;-77
2021/07/16 07:00:13;;;;;;;20.27;6.47;;;;;;;20.83;82.27;101714.66;5010157;28;20120;-74
2021/07/16 07:02:38;;;;;;;29.95;6.90;;;;;;;20.88;82.51;101724.75;5028724;28;20125;-76
2021/07/16 07:05:05;;;;;;;23.08;6.07;;;;;;;20.98;84.27;101726.09;5021727;28;20543;-77
2021/07/16 07:07:31;;;;;;;33.58;7.20;;;;;;;21.16;81.41;101727.47;5012408;28;20072;-76
2021/07/16 07:09:56;;;;;;;24.70;6.07;;;;;;;21.38;83.09;101729.09;5019538;28;20041;-74
2021/07/16 07:12:22;;;;;;;23.60;6.40;;;;;;;21.34;79.58;101733.16;4995346;28;20503;-75
2021/07/16 07:14:47;;;;;;;23.52;5.75;;;;;;;21.33;81.80;101733.34;4995815;28;20033;-76
2021/07/16 07:17:13;;;;;;;23.73;6.20;;;;;;;21.30;82.96;101739.88;5011830;28;20413;-76
2021/07/16 07:19:42;;;;;;;24.08;6.18;;;;;;;21.45;84.80;101739.00;5004252;28;20029;-77
2021/07/16 07:22:07;;;;;;;29.52;6.47;;;;;;;21.42;80.60;101742.00;4996009;28;20128;-77
2021/07/16 07:24:33;;;;;;;24.17;5.97;;;;;;;21.56;80.16;101741.94;4994516;28;20140;-77
2021/07/16 07:26:58;;;;;;;18.60;6.10;;;;;;;21.74;78.54;101743.31;5018601;28;20041;-76
2021/07/16 07:29:25;;;;;;;23.25;5.90;;;;;;;21.74;79.61;101730.78;4993637;28;20040;-76
2021/07/16 07:31:51;;;;;;;25.98;6.40;;;;;;;21.90;77.61;101739.50;5027810;28;20041;-77
2021/07/16 07:34:17;;;;;;;21.73;5.85;;;;;;;21.95;77.88;101739.72;5012883;28;20380;-77
2021/07/16 07:36:45;;;;;;;23.50;5.65;;;;;;;22.17;79.47;101748.47;5027348;28;20487;-75
2021/07/16 07:39:10;;;;;;;23.77;6.07;;;;;;;22.20;77.13;101749.91;5012491;28;20037;-78
2021/07/16 07:41:36;;;;;;;23.20;5.82;;;;;;;21.87;79.34;101755.91;4996599;28;20025;-74
2021/07/16 07:44:03;;;;;;;19.10;5.57;;;;;;;21.81;81.87;101752.16;5012210;28;20039;-76
2021/07/16 07:46:28;;;;;;;20.60;5.40;;;;;;;21.65;79.76;101750.66;5031495;28;20123;-77
2021/07/16 07:48:54;;;;;;;21.02;5.32;;;;;;;21.73;80.67;101747.81;5003494;28;20069;-78
2021/07/16 07:51:19;;;;;;;23.83;6.63;;;;;;;22.16;79.34;101749.47;4998443;28;20043;-78
2021/07/16 07:53:45;;;;;;;22.80;5.55;;;;;;;22.22;78.51;101747.84;5025590;28;20043;-74
2021/07/16 07:56:10;;;;;;;24.52;5.70;;;;;;;22.41;77.71;101736.44;5028928;28;20456;-79
2021/07/16 07:58:36;;;;;;;23.83;5.82;;;;;;;22.57;76.35;101737.13;5012844;28;20045;-78
2021/07/16 08:01:02;;;;;;;22.08;5.75;;;;;;;22.80;76.00;101748.25;5017612;28;20064;-77
2021/07/16 08:03:27;;;;;;;20.05;5.80;;;;;;;22.97;79.23;101762.06;4998093;28;20077;-74
2021/07/16 08:05:53;;;;;;;29.15;5.85;;;;;;;22.99;74.56;101760.00;5001413;28;20112;-77
2021/07/16 08:08:18;;;;;;;22.48;5.70;;;;;;;23.20;74.85;101767.03;5022617;28;20116;-77
2021/07/16 08:10:44;;;;;;;25.40;5.85;;;;;;;23.28;73.97;101768.69;4997202;28;20388;-75
2021/07/16 08:13:09;;;;;;;25.88;6.82;;;;;;;23.50;74.11;101772.78;5010093;28;20029;-75
2021/07/16 08:15:35;;;;;;;20.85;5.63;;;;;;;23.76;74.14;101784.50;5012338;28;20080;-78
2021/07/16 08:18:01;;;;;;;26.25;5.47;;;;;;;23.97;75.28;101783.47;5012036;28;20049;-77
2021/07/16 08:20:39;;;;;;;22.38;4.80;;;;;;;24.18;70.46;101782.34;5122340;27;20338;-76
2021/07/16 08:23:04;;;;;;;19.58;5.45;;;;;;;24.24;71.31;101773.50;5084517;28;20085;-77
2021/07/16 08:25:30;;;;;;;20.63;5.18;;;;;;;23.98;70.24;101774.41;5050342;28;20043;-77
2021/07/16 08:27:56;;;;;;;17.65;4.85;;;;;;;23.83;71.78;101771.97;5083676;28;20032;-77
2021/07/16 08:30:21;;;;;;;24.50;5.82;;;;;;;23.75;72.00;101761.44;5067683;28;20055;-77
2021/07/16 08:32:47;;;;;;;21.95;5.57;;;;;;;23.84;74.97;101764.75;5091186;28;20082;-76
2021/07/16 08:35:13;;;;;;;17.83;5.50;;;;;;;23.96;72.13;101763.06;5085377;28;20056;-77
2021/07/16 08:37:39;;;;;;;20.02;5.50;;;;;;;23.88;69.04;101766.81;5068095;28;20505;-76
2021/07/16 08:40:06;;;;;;;27.08;5.25;;;;;;;23.79;72.96;101777.94;5051284;28;20037;-76
2021/07/16 08:42:31;;;;;;;22.30;5.53;;;;;;;23.64;73.34;101773.63;5046728;28;20041;-76
2021/07/16 08:44:57;;;;;;;22.02;5.32;;;;;;;23.48;73.58;101771.38;5084601;28;20055;-75
2021/07/16 08:47:23;;;;;;;16.77;5.10;;;;;;;23.39;71.25;101775.28;5050628;28;20040;-76
2021/07/16 08:49:49;;;;;;;23.27;5.53;;;;;;;23.61;76.56;101771.34;5067146;28;20059;-75
2021/07/16 08:52:18;;;;;;;21.77;5.28;;;;;;;23.78;73.01;101766.38;5049949;28;20032;-75
2021/07/16 08:54:49;;;;;;;20.55;5.30;;;;;;;23.62;71.92;101770.34;5051369;28;20086;-77
2021/07/16 08:57:16;;;;;;;24.77;5.17;;;;;;;23.90;71.39;101780.81;5068344;28;20040;-77
2021/07/16 08:59:42;;;;;;;27.27;5.80;;;;;;;23.85;71.01;101772.56;5051583;28;20040;-76
2021/07/16 09:02:08;;;;;;;21.05;6.03;;;;;;;23.87;70.82;101785.75;5052590;28;20115;-75
2021/07/16 09:04:38;;;;;;;21.13;5.72;;;;;;;24.09;72.69;101779.09;5086102;28;20032;-76
2021/07/16 09:07:04;;;;;;;22.38;6.00;;;;;;;24.41;74.85;101776.50;5046674;28;20079;-77
2021/07/16 09:09:35;;;;;;;20.38;5.72;;;;;;;24.55;70.10;101782.66;5055012;28;20070;-76
2021/07/16 09:12:06;;;;;;;24.63;6.47;;;;;;;24.91;71.40;101777.69;5051248;28;20394;-76
2021/07/16 09:14:32;;;;;;;20.88;5.90;;;;;;;25.13;71.64;101783.50;5050129;28;20062;-75
2021/07/16 09:17:10;;;;;;;20.30;4.95;;;;;;;25.18;69.69;101780.97;5083687;28;20396;-76
2021/07/16 09:19:47;;;;;;;24.02;5.70;;;;;;;25.30;66.34;101779.28;5066660;28;20079;-76
2021/07/16 09:22:15;;;;;;;27.92;6.38;;;;;;;25.51;66.07;101787.97;5050547;28;20040;-75
2021/07/16 09:24:50;;;;;;;17.90;5.65;;;;;;;25.81;63.75;101801.53;5067076;28;20062;-75
2021/07/16 09:27:42;;;;;;;21.15;5.35;;;;;;;25.75;64.35;101797.88;5046058;28;20058;-78
2021/07/16 09:30:16;;;;;;;18.60;5.13;;;;;;;25.66;64.46;101795.69;5037354;28;20032;-76
2021/07/16 09:32:47;;;;;;;14.55;4.88;;;;;;;25.67;64.88;101791.94;5032177;28;20040;-77
2021/07/16 09:35:18;;;;;;;21.20;4.88;;;;;;;25.91;65.46;101795.63;5036124;28;20040;-76
2021/07/16 09:37:55;;;;;;;15.77;4.90;;;;;;;26.14;65.16;101798.47;5033093;28;20139;-75
2021/07/16 09:40:55;;;;;;;20.80;5.03;;;;;;;26.44;63.46;101795.00;5021323;28;20040;-75
2021/07/16 09:43:24;;;;;;;16.30;5.03;;;;;;;26.39;60.64;101800.25;5028131;28;20124;-75
2021/07/16 09:46:01;;;;;;;18.50;4.93;;;;;;;26.54;64.66;101792.63;5042645;28;20036;-77
2021/07/16 09:48:33;;;;;;;16.52;5.10;;;;;;;26.61;60.26;101801.44;5052055;28;20030;-76
2021/07/16 09:51:12;;;;;;;16.08;4.68;;;;;;;26.42;62.65;101797.94;5035727;28;20561;-76
2021/07/16 09:53:41;;;;;;;21.13;5.13;;;;;;;26.16;62.76;101809.00;5052541;28;20040;-76
2021/07/16 09:56:27;;;;;;;16.83;5.10;;;;;;;25.97;62.59;101803.63;5035511;28;20037;-78
2021/07/16 09:59:06;;;;;;;16.40;5.13;;;;;;;25.41;62.45;101799.19;5032930;28;20459;-77
2021/07/16 10:01:51;;;;;;;24.15;4.75;;;;;;;25.54;63.94;101801.78;5033567;28;20037;-77
2021/07/16 10:04:21;;;;;;;18.73;4.65;;;;;;;25.62;66.04;101792.63;5049223;28;20032;-75
2021/07/16 10:06:49;;;;;;;17.17;4.93;;;;;;;25.72;66.98;101787.56;5048912;28;20037;-76
2021/07/16 10:09:16;;;;;;;15.63;4.70;;;;;;;25.65;65.35;101781.41;5035686;28;20043;-77
2021/07/16 10:11:46;;;;;;;16.80;4.88;;;;;;;25.59;68.00;101787.69;5021364;28;20039;-76
2021/07/16 10:14:13;;;;;;;15.75;4.95;;;;;;;25.61;65.89;101778.34;5027925;28;20040;-75
2021/07/16 10:16:39;;;;;;;17.48;5.13;;;;;;;25.59;65.27;101783.13;5030798;28;20048;-75
2021/07/16 10:19:05;;;;;;;14.80;4.72;;;;;;;25.34;65.25;101779.66;5015443;28;20124;-77
2021/07/16 10:21:31;;;;;;;14.35;4.88;;;;;;;25.26;63.70;101783.44;5025309;28;20036;-75
2021/07/16 10:23:58;;;;;;;16.85;4.57;;;;;;;25.50;64.58;101789.00;5015242;28;20091;-77
2021/07/16 10:26:25;;;;;;;16.10;4.50;;;;;;;25.49;69.87;101790.88;5029275;28;20124;-76
2021/07/16 10:28:52;;;;;;;20.38;5.72;;;;;;;25.20;71.46;101782.44;5045036;28;20055;-76
2021/07/16 10:31:32;;;;;;;17.02;4.97;;;;;;;25.30;69.20;101795.38;5033566;28;20453;-76
2021/07/16 10:34:05;;;;;;;14.80;4.70;;;;;;;25.37;69.84;101796.16;5025438;28;20060;-76
2021/07/16 10:36:37;;;;;;;15.43;4.70;;;;;;;25.42;67.05;101792.81;5028770;28;20448;-76
2021/07/16 10:39:12;;;;;;;19.25;4.93;;;;;;;25.53;68.98;101802.00;5034723;28;20472;-78
2021/07/16 10:41:40;;;;;;;20.38;4.68;;;;;;;25.46;72.19;101796.69;5031062;28;20134;-78
2021/07/16 10:44:11;;;;;;;21.10;5.38;;;;;;;25.57;68.99;101804.03;5050740;28;20071;-77
2021/07/16 10:46:38;;;;;;;16.50;5.45;;;;;;;25.51;74.17;101799.53;5033320;28;20044;-78
2021/07/16 10:49:12;;;;;;;20.48;5.40;;;;;;;25.42;68.71;101808.91;5034407;28;20036;-77
2021/07/16 10:51:40;;;;;;;25.10;5.30;;;;;;;25.43;68.90;101811.38;5033563;28;20041;-74
2021/07/16 10:54:10;;;;;;;14.60;4.97;;;;;;;25.88;68.38;101825.63;5033341;28;20036;-76
2021/07/16 10:56:44;;;;;;;22.52;5.85;;;;;;;26.46;64.83;101819.81;5033335;28;20481;-78
2021/07/16 10:59:11;;;;;;;17.63;4.72;;;;;;;26.57;70.75;101821.75;5034007;28;20139;-77
2021/07/16 11:01:40;;;;;;;14.23;4.70;;;;;;;26.66;68.91;101832.22;5022392;28;20043;-79
2021/07/16 11:04:07;;;;;;;20.83;5.88;;;;;;;26.64;66.27;101835.16;5072455;28;20092;-76
2021/07/16 11:07:05;;;;;;;21.10;5.45;;;;;;;26.29;66.99;101827.69;5029042;28;20128;-77
2021/07/16 11:09:32;;;;;;;16.95;4.97;;;;;;;26.61;67.55;101833.72;5019168;28;20131;-78
2021/07/16 11:12:18;;;;;;;19.55;5.25;;;;;;;26.44;66.73;101818.41;5031648;28;20107;-76
2021/07/16 11:14:44;;;;;;;16.40;4.50;;;;;;;26.15;67.22;101829.72;5049952;28;20036;-77
2021/07/16 11:17:10;;;;;;;25.45;5.30;;;;;;;26.44;64.72;101827.28;5051183;28;20063;-79